Coos Bay, OR (97420)

10:18 AM PST on December 06, 2016 (GMT -0800)
Sunset School | | Change Station

Elev 85 ft 43.39 °N, 124.27 °W | Updated 9 seconds ago

Mostly Cloudy
Mostly Cloudy
41.6 °F
Feels Like 42 °F
N
0.0
Wind Variable Wind from North
Gusts 3.0 mph

Today
High -- | Low -- °F
--% Chance of Precip.
Yesterday
High -- | Low -- °F
Precip. -- in
Pressure 30.11 in
Visibility 10.0 miles
Clouds Scattered Clouds 9000 ft
Mostly Cloudy 11000 ft
Windchill 42 °F
Dew Point 39 °F
Humidity 92%
Rainfall 0.22 in
Snow Depth Not available.
7:35 AM 4:40 PM
Waxing Crescent, 44% visible
METAR KOTH 061815Z 04003KT 10SM SCT090 BKN110 06/04 A3011 RMK AO1
Pressure 30.11 in
Visibility 10.0 miles
Clouds Scattered Clouds 9000 ft
Mostly Cloudy 11000 ft
Windchill 42 °F
Dew Point 39 °F
Humidity 92%
Rainfall 0.22 in
Snow Depth Not available.
7:35 AM 4:40 PM
Waxing Crescent, 44% visible
METAR KOTH 061815Z 04003KT 10SM SCT090 BKN110 06/04 A3011 RMK AO1

10-Day Weather Forecast

Almanac

Astronomy

Dec. 06, 2016 Rise Set
Actual Time
Civil Twilight
Nautical Twilight
Astronomical Twilight
Moon
Length of Visible Light
Length of Day
Tomorrow will be .
, % of the Moon is Illuminated

Today's Extremes

State Highs State Lows

Community

WunderPhotos

Upload Photos

1,955,997 photos uploaded!

WunderBlog® & News

Nearby

Air Quality

  Air Quality AQ Index Pollutant
Not available.

Snow Depth

Station Depth Elevation

Earthquake Activity

City Distance Mag. Time & Date
Minimum magnitude displayed is 2.5.

Coastal Water Temperatures

Place Temperature

Stations

Nearby Weather Stations

Station Location Temp. Windchill Dew Point Humidity Wind Precip. Elev Updated Type
                   

Watches & Warnings

Freeze Warning, Frost Advisory
Issued: 3:27 AM PST Dec. 6, 2016 – National Weather Service

... Frost advisory in effect from midnight tonight to 8 am PST
Wednesday...
... Freeze warning in effect from 1 am to 7 am PST Wednesday...

The National Weather Service in Medford has issued a freeze
warning... which is in effect from 1 am to 7 am PST Wednesday. A
frost advisory has also been issued. This frost advisory is in
effect from midnight tonight to 8 am PST Wednesday.

* Temperature... 25 to 35.

* Locations in the freeze warning include... Coquille... Myrtle
Point and Powers.

* Locations in the frost advisory includes Bandon... Coos
Bay... North Bend... Reedsport and areas along the coast.

* Impacts... this may be the first freeze of the fall for many coastal
valleys inland from the immediate coast.

* View the hazard area in detail at
http://weather.Gov/Medford/hazard

Precautionary/preparedness actions...

A freeze warning means sub-freezing temperatures are imminent or
highly likely. These conditions will kill crops and other
sensitive vegetation.

A frost advisory means that frost is possible. Sensitive outdoor
plants may be killed if left uncovered.